Time;durP1;ratioP1;P1;durP2;ratioP2;P2;SDS_P1;SDS_P2;PMS_P1;PMS_P2;Temp;Humidity;BMP_temperature;BMP_pressure;BME280_temperature;BME280_humidity;BME280_pressure;Samples;Min_cycle;Max_cycle;Signal;HPM_P1;HPM_P2
2021/04/21 00:01:51;;;;;;;16.00;7.22;;;6.50;70.60;;;;;;5087949;27;20235;-83
2021/04/21 00:04:18;;;;;;;12.27;7.35;;;6.50;70.80;;;;;;5108965;27;20038;-83
2021/04/21 00:06:44;;;;;;;12.93;7.63;;;6.40;71.00;;;;;;5108112;27;20355;-82
2021/04/21 00:09:17;;;;;;;11.90;7.85;;;6.40;71.20;;;;;;5093414;27;20143;-82
2021/04/21 00:11:43;;;;;;;13.20;7.97;;;6.30;71.10;;;;;;5093350;27;20569;-82
2021/04/21 00:14:21;;;;;;;12.40;7.43;;;6.30;71.20;;;;;;5106136;27;20040;-83
2021/04/21 00:16:51;;;;;;;15.00;7.63;;;6.30;71.60;;;;;;5121358;27;20049;-83
2021/04/21 00:19:19;;;;;;;9.18;7.10;;;6.40;71.50;;;;;;5104962;27;20066;-83
2021/04/21 00:21:47;;;;;;;10.75;7.40;;;6.40;71.30;;;;;;5107250;27;20431;-83
2021/04/21 00:24:16;;;;;;;13.27;7.97;;;6.30;71.30;;;;;;5097701;27;20047;-83
2021/04/21 00:26:45;;;;;;;12.82;7.78;;;6.30;71.60;;;;;;5106611;27;20161;-82
2021/04/21 00:29:14;;;;;;;15.25;7.97;;;6.20;72.10;;;;;;5110392;27;20039;-83
2021/04/21 00:31:42;;;;;;;11.13;6.90;;;6.10;72.40;;;;;;5111948;27;20227;-83
2021/04/21 00:34:10;;;;;;;17.80;7.68;;;6.00;72.60;;;;;;5107301;27;20413;-83
2021/04/21 00:36:39;;;;;;;11.98;7.80;;;6.00;72.80;;;;;;5106442;27;20097;-83
2021/04/21 00:39:06;;;;;;;12.20;7.57;;;5.90;73.00;;;;;;5115220;27;20459;-83
2021/04/21 00:42:10;;;;;;;10.45;7.80;;;5.80;73.20;;;;;;5089901;27;20057;-83
2021/04/21 00:45:16;;;;;;;13.90;7.93;;;5.80;73.80;;;;;;5109654;27;20485;-83
2021/04/21 00:47:55;;;;;;;15.40;7.22;;;5.80;73.60;;;;;;5088967;27;20122;-85
2021/04/21 00:50:54;;;;;;;13.98;7.45;;;5.70;73.20;;;;;;5114490;27;20039;-85
2021/04/21 00:53:48;;;;;;;12.02;7.22;;;5.70;74.00;;;;;;5100359;27;20065;-85
2021/04/21 00:56:28;;;;;;;11.43;7.85;;;5.70;73.60;;;;;;5109789;27;20039;-85
2021/04/21 00:59:12;;;;;;;11.48;7.60;;;5.70;73.80;;;;;;5094369;27;20043;-85
2021/04/21 01:01:40;;;;;;;13.20;7.70;;;5.60;73.80;;;;;;5106569;27;20479;-85
2021/04/21 01:04:06;;;;;;;13.13;7.60;;;5.60;73.80;;;;;;5105044;27;20042;-85
2021/04/21 01:06:42;;;;;;;12.40;7.63;;;5.60;74.00;;;;;;5095624;27;20500;-84
2021/04/21 01:09:10;;;;;;;16.58;7.80;;;5.50;74.70;;;;;;5110975;27;21148;-85
2021/04/21 01:11:53;;;;;;;12.32;7.90;;;5.50;74.70;;;;;;5085396;27;20444;-85
2021/04/21 01:14:25;;;;;;;11.15;7.57;;;5.50;75.20;;;;;;5115764;27;20496;-85
2021/04/21 01:16:56;;;;;;;10.77;8.07;;;5.40;75.10;;;;;;5121222;27;20072;-84
2021/04/21 01:19:49;;;;;;;13.30;8.27;;;5.30;75.20;;;;;;5089709;27;20115;-85
2021/04/21 01:22:28;;;;;;;13.20;7.65;;;5.40;75.40;;;;;;5109422;27;20631;-84
2021/04/21 01:25:15;;;;;;;11.48;7.38;;;5.40;75.10;;;;;;5104262;27;20035;-84
2021/04/21 01:27:50;;;;;;;14.10;7.57;;;5.40;75.20;;;;;;5111695;27;20039;-85
2021/04/21 01:30:19;;;;;;;13.98;8.65;;;5.30;75.10;;;;;;5107635;27;20027;-85
2021/04/21 01:32:48;;;;;;;15.35;8.07;;;5.30;75.40;;;;;;5092558;28;20046;-85
2021/04/21 01:35:19;;;;;;;12.75;7.80;;;5.20;75.60;;;;;;5112356;27;20089;-85
2021/04/21 01:37:47;;;;;;;14.43;8.32;;;5.20;75.80;;;;;;5107186;27;20028;-85
2021/04/21 01:40:20;;;;;;;13.70;8.13;;;5.10;75.90;;;;;;5100866;28;20035;-85
2021/04/21 01:42:50;;;;;;;13.23;7.65;;;5.10;76.10;;;;;;5123185;27;20023;-85
2021/04/21 01:45:22;;;;;;;11.30;7.28;;;5.00;76.20;;;;;;5134735;28;20282;-85
2021/04/21 01:47:50;;;;;;;14.48;7.57;;;5.00;76.40;;;;;;5126796;28;20047;-84
2021/04/21 01:50:18;;;;;;;19.52;7.07;;;5.00;76.80;;;;;;5118451;28;20553;-84
2021/04/21 01:53:14;;;;;;;16.40;7.78;;;4.90;76.70;;;;;;5121092;27;20032;-84
2021/04/21 01:56:07;;;;;;;10.90;7.07;;;4.90;77.20;;;;;;5133224;27;20038;-85
2021/04/21 01:58:58;;;;;;;13.68;7.00;;;4.90;77.00;;;;;;5114460;27;20286;-85
2021/04/21 02:01:55;;;;;;;15.63;7.93;;;4.90;77.10;;;;;;5109889;27;20035;-85
2021/04/21 02:04:52;;;;;;;11.07;7.57;;;4.80;77.10;;;;;;5107308;27;20332;-85
2021/04/21 02:07:39;;;;;;;11.85;7.20;;;4.80;77.10;;;;;;5106413;27;20043;-85
2021/04/21 02:10:35;;;;;;;12.27;7.22;;;4.70;77.40;;;;;;5088633;28;20043;-84
2021/04/21 02:13:13;;;;;;;15.05;7.88;;;4.60;77.20;;;;;;5091748;27;20040;-85
2021/04/21 02:16:01;;;;;;;14.32;7.68;;;4.50;77.70;;;;;;5106213;27;20489;-85
2021/04/21 02:18:52;;;;;;;13.00;7.22;;;4.60;78.10;;;;;;5106416;27;20357;-85
2021/04/21 02:21:30;;;;;;;13.25;7.68;;;4.50;78.30;;;;;;5111023;27;20143;-84
2021/04/21 02:24:18;;;;;;;10.07;6.68;;;4.50;78.20;;;;;;5123298;27;20080;-85
2021/04/21 02:27:08;;;;;;;16.25;7.65;;;4.40;78.10;;;;;;5119323;28;20092;-84
2021/04/21 02:29:44;;;;;;;12.88;7.25;;;4.40;78.30;;;;;;5132970;27;20027;-85
2021/04/21 02:32:13;;;;;;;14.70;7.95;;;4.40;78.20;;;;;;5123265;27;20027;-85
2021/04/21 02:35:08;;;;;;;13.63;8.55;;;4.40;78.30;;;;;;5124896;27;20514;-85
2021/04/21 02:37:52;;;;;;;13.15;8.05;;;4.40;78.30;;;;;;5124012;27;20043;-84
2021/04/21 02:40:55;;;;;;;13.23;8.02;;;4.40;79.10;;;;;;5125205;27;20421;-85
2021/04/21 02:43:39;;;;;;;;;;;4.30;78.90;;;;;;5111228;27;20951;-84
2021/04/21 02:46:27;;;;;;;10.57;7.35;;;4.30;79.20;;;;;;5110394;27;19923;-85
2021/04/21 02:49:06;;;;;;;8.95;5.78;;;4.20;79.00;;;;;;5112689;27;20652;-85
2021/04/21 02:52:02;;;;;;;9.38;6.70;;;4.20;78.70;;;;;;5121598;27;20050;-84
2021/04/21 02:55:00;;;;;;;14.00;7.20;;;4.20;78.90;;;;;;5121250;27;20035;-85
2021/04/21 02:57:42;;;;;;;13.85;6.68;;;4.20;79.00;;;;;;5124176;27;20027;-85
2021/04/21 03:00:35;;;;;;;9.63;7.00;;;4.10;78.80;;;;;;5127386;27;20428;-86
2021/04/21 03:03:10;;;;;;;10.57;7.03;;;4.10;79.00;;;;;;5131155;27;20027;-85
2021/04/21 03:05:37;;;;;;;15.27;7.70;;;4.10;78.80;;;;;;5121641;27;20039;-85
2021/04/21 03:08:31;;;;;;;14.30;7.53;;;4.00;78.90;;;;;;5127890;27;20039;-84
2021/04/21 03:11:12;;;;;;;16.08;7.43;;;4.00;79.40;;;;;;5106785;27;20047;-85
2021/04/21 03:13:48;;;;;;;14.77;7.82;;;4.00;79.20;;;;;;5111951;27;20095;-84
2021/04/21 03:16:17;;;;;;;14.02;6.90;;;4.00;79.30;;;;;;5108391;27;20483;-85
2021/04/21 03:18:46;;;;;;;14.35;7.13;;;3.90;78.90;;;;;;5109492;27;20482;-84
2021/04/21 03:21:24;;;;;;;11.75;6.88;;;3.90;79.30;;;;;;5107359;27;20324;-85
2021/04/21 03:24:08;;;;;;;8.73;6.38;;;3.80;79.40;;;;;;5113415;27;20350;-85
2021/04/21 03:26:36;;;;;;;12.82;7.10;;;3.80;79.20;;;;;;5127515;27;20043;-84
2021/04/21 03:29:04;;;;;;;12.73;7.70;;;3.70;79.60;;;;;;5120559;27;20035;-85
2021/04/21 03:31:34;;;;;;;8.88;6.63;;;3.70;79.80;;;;;;5125990;27;20036;-85
2021/04/21 03:34:06;;;;;;;12.65;7.00;;;3.70;79.80;;;;;;5125175;27;20027;-85
2021/04/21 03:36:33;;;;;;;15.30;7.15;;;3.70;80.00;;;;;;5122157;27;20035;-85
2021/04/21 03:39:01;;;;;;;12.75;8.00;;;3.60;80.00;;;;;;5124463;27;20027;-85
2021/04/21 03:41:29;;;;;;;14.02;6.68;;;3.70;79.80;;;;;;5117641;27;20496;-85
2021/04/21 03:43:55;;;;;;;14.75;7.10;;;3.50;79.50;;;;;;5094462;27;20567;-85
2021/04/21 03:46:22;;;;;;;11.85;6.72;;;3.40;79.70;;;;;;5108961;27;20070;-84
2021/04/21 03:48:49;;;;;;;14.90;8.23;;;3.50;80.20;;;;;;5110371;27;20035;-85
2021/04/21 03:51:17;;;;;;;14.07;8.70;;;3.40;80.20;;;;;;5095625;27;20031;-85
2021/04/21 03:53:44;;;;;;;13.15;7.72;;;3.40;80.10;;;;;;5095549;27;20614;-85
2021/04/21 03:56:17;;;;;;;19.85;9.80;;;3.40;80.30;;;;;;5096054;27;20063;-84
2021/04/21 03:58:45;;;;;;;12.77;8.48;;;3.40;80.60;;;;;;5109740;27;20039;-85
2021/04/21 04:01:19;;;;;;;16.05;7.90;;;3.40;80.50;;;;;;5100615;27;20050;-84
2021/04/21 04:03:57;;;;;;;21.27;8.20;;;3.30;80.70;;;;;;5121000;27;20066;-85
2021/04/21 04:06:24;;;;;;;12.52;8.50;;;3.30;81.10;;;;;;5140505;27;20039;-85
2021/04/21 04:08:55;;;;;;;15.75;8.73;;;3.30;81.00;;;;;;5121846;27;20035;-85
2021/04/21 04:11:38;;;;;;;12.23;8.02;;;3.30;81.20;;;;;;5104347;27;20412;-85
2021/04/21 04:14:24;;;;;;;12.70;8.30;;;3.30;81.10;;;;;;5105761;27;20150;-85
2021/04/21 04:16:58;;;;;;;16.85;8.77;;;3.30;81.30;;;;;;5109281;27;20088;-84
2021/04/21 04:19:25;;;;;;;13.63;9.25;;;3.30;81.10;;;;;;5105225;27;20032;-84
2021/04/21 04:22:16;;;;;;;18.65;10.02;;;3.30;81.10;;;;;;5103581;27;20035;-85
2021/04/21 04:24:52;;;;;;;17.17;10.10;;;3.30;81.30;;;;;;5103791;27;20063;-84
2021/04/21 04:27:20;;;;;;;17.20;10.27;;;3.30;81.20;;;;;;5106009;27;20355;-84
2021/04/21 04:29:47;;;;;;;18.88;10.23;;;3.30;81.00;;;;;;5107212;27;20042;-85
2021/04/21 04:32:18;;;;;;;16.67;10.65;;;3.40;81.20;;;;;;5085333;27;20568;-84
2021/04/21 04:34:46;;;;;;;17.15;9.90;;;3.30;81.30;;;;;;5108640;27;20791;-84
2021/04/21 04:37:17;;;;;;;20.17;11.73;;;3.40;81.70;;;;;;5116967;27;20084;-84
2021/04/21 04:39:44;;;;;;;27.48;11.00;;;3.30;81.60;;;;;;5122114;27;20055;-85
2021/04/21 04:42:11;;;;;;;26.85;11.57;;;3.40;81.60;;;;;;5115859;27;20072;-84
2021/04/21 04:44:42;;;;;;;25.17;11.35;;;3.40;81.80;;;;;;5114838;27;20028;-85
2021/04/21 04:47:43;;;;;;;25.08;13.27;;;3.40;82.00;;;;;;5104757;27;20039;-84
2021/04/21 04:50:14;;;;;;;17.50;12.68;;;3.40;82.10;;;;;;5100307;27;20047;-86
2021/04/21 04:52:42;;;;;;;25.90;14.70;;;3.40;82.10;;;;;;5117949;27;20112;-85
2021/04/21 04:55:11;;;;;;;26.73;15.13;;;3.40;82.30;;;;;;5119629;27;22588;-84
2021/04/21 04:57:42;;;;;;;21.45;15.15;;;3.50;82.70;;;;;;5111133;27;20374;-84
2021/04/21 05:00:10;;;;;;;25.48;16.25;;;3.60;82.90;;;;;;5122312;27;20031;-86
2021/04/21 05:02:44;;;;;;;29.95;18.25;;;3.70;82.90;;;;;;5112182;27;20442;-85
2021/04/21 05:05:10;;;;;;;27.63;17.88;;;3.70;83.10;;;;;;5112999;27;20568;-84
2021/04/21 05:07:46;;;;;;;23.73;17.63;;;3.90;83.10;;;;;;5119980;27;20076;-85
2021/04/21 05:10:26;;;;;;;24.40;17.48;;;4.00;83.20;;;;;;5115801;27;20031;-84
2021/04/21 05:13:03;;;;;;;25.45;16.30;;;4.10;83.30;;;;;;5110047;27;20063;-85
2021/04/21 05:15:31;;;;;;;27.35;18.67;;;4.20;83.10;;;;;;5087288;27;20099;-85
2021/04/21 05:18:27;;;;;;;24.05;17.25;;;4.20;83.00;;;;;;5105367;27;20042;-85
2021/04/21 05:21:02;;;;;;;29.63;18.70;;;4.30;83.10;;;;;;5109027;27;20410;-84
2021/04/21 05:24:09;;;;;;;26.48;18.67;;;4.40;83.10;;;;;;5102786;27;20035;-84
2021/04/21 05:26:59;;;;;;;27.23;19.20;;;4.40;83.30;;;;;;5111687;27;20035;-84
2021/04/21 05:30:04;;;;;;;21.60;16.45;;;4.40;83.10;;;;;;5106127;27;20031;-84
2021/04/21 05:33:21;;;;;;;27.67;19.15;;;4.50;83.20;;;;;;5116215;27;20104;-84
2021/04/21 05:36:08;;;;;;;28.38;18.90;;;4.60;83.20;;;;;;5032725;28;20145;-85
2021/04/21 05:39:15;;;;;;;27.42;17.13;;;4.70;83.10;;;;;;5117392;28;20122;-85
2021/04/21 05:42:08;;;;;;;30.45;17.02;;;4.80;83.00;;;;;;5136133;27;20564;-84
2021/04/21 05:44:54;;;;;;;23.80;16.38;;;4.90;82.80;;;;;;5118765;27;20039;-86
2021/04/21 05:47:50;;;;;;;26.13;17.80;;;5.00;82.60;;;;;;5100974;28;20255;-84
2021/04/21 05:50:31;;;;;;;28.58;18.48;;;5.10;82.70;;;;;;5105777;27;20389;-85
2021/04/21 05:53:31;;;;;;;29.50;19.35;;;5.30;82.60;;;;;;5112054;28;20059;-84
2021/04/21 05:56:28;;;;;;;29.05;20.15;;;5.40;83.00;;;;;;5106233;28;20031;-84
2021/04/21 05:58:56;;;;;;;28.98;18.17;;;5.50;83.00;;;;;;5124057;28;20091;-83
2021/04/21 06:01:39;;;;;;;34.63;19.88;;;5.70;82.90;;;;;;5124409;27;20148;-84
2021/04/21 06:04:05;;;;;;;26.55;19.63;;;5.80;83.20;;;;;;5124499;27;20034;-84
2021/04/21 06:06:31;;;;;;;27.85;21.38;;;6.00;83.40;;;;;;5132245;27;20034;-84
2021/04/21 06:09:08;;;;;;;38.13;21.63;;;6.10;83.50;;;;;;5089131;27;20060;-84
2021/04/21 06:11:35;;;;;;;29.85;20.15;;;6.20;83.90;;;;;;5114125;27;20091;-83
2021/04/21 06:14:04;;;;;;;31.60;20.50;;;6.40;84.00;;;;;;5105110;27;20120;-83
2021/04/21 06:16:31;;;;;;;30.63;22.67;;;6.60;84.10;;;;;;5117213;27;20027;-83
2021/04/21 06:19:08;;;;;;;21.75;18.10;;;6.60;84.30;;;;;;5124049;27;20402;-84
2021/04/21 06:21:37;;;;;;;25.70;18.77;;;6.80;84.40;;;;;;5118878;27;20031;-83
2021/04/21 06:24:21;;;;;;;25.45;19.55;;;6.90;84.30;;;;;;5115834;27;20477;-82
2021/04/21 06:26:47;;;;;;;25.95;19.90;;;7.00;84.40;;;;;;5121093;27;20491;-83
2021/04/21 06:29:14;;;;;;;31.95;20.42;;;7.10;84.10;;;;;;5108989;27;20091;-83
2021/04/21 06:31:43;;;;;;;25.10;18.55;;;7.20;84.20;;;;;;5112446;27;20478;-83
2021/04/21 06:34:11;;;;;;;25.23;18.98;;;7.40;84.30;;;;;;5108755;27;20090;-83
2021/04/21 06:36:40;;;;;;;26.25;19.00;;;7.60;83.80;;;;;;5090980;27;20107;-83
2021/04/21 06:39:07;;;;;;;21.13;16.33;;;7.70;83.60;;;;;;5112005;27;20214;-83
2021/04/21 06:41:34;;;;;;;26.45;17.65;;;7.90;83.30;;;;;;5107780;27;20043;-82
2021/04/21 06:44:00;;;;;;;27.17;17.77;;;8.10;83.00;;;;;;5112226;27;20103;-83
2021/04/21 06:46:27;;;;;;;23.33;16.95;;;8.30;82.40;;;;;;5115344;27;20059;-83
2021/04/21 06:48:58;;;;;;;23.38;15.43;;;8.40;82.00;;;;;;5096798;27;20638;-83
2021/04/21 06:51:27;;;;;;;22.70;15.25;;;8.60;81.60;;;;;;5117278;27;20147;-84
2021/04/21 06:53:54;;;;;;;29.38;17.17;;;8.90;80.60;;;;;;5117951;27;20035;-84
2021/04/21 06:56:32;;;;;;;26.30;16.92;;;9.00;80.10;;;;;;5127114;27;20027;-83
2021/04/21 06:58:59;;;;;;;27.63;18.50;;;9.20;79.70;;;;;;5125214;27;20084;-84
2021/04/21 07:01:28;;;;;;;30.67;20.25;;;9.30;79.40;;;;;;5128733;27;20485;-83
2021/04/21 07:04:14;;;;;;;34.45;21.17;;;9.50;79.40;;;;;;5130447;27;20027;-83
2021/04/21 07:06:44;;;;;;;33.30;20.88;;;9.70;79.20;;;;;;5115708;27;20043;-83
2021/04/21 07:09:22;;;;;;;35.47;22.73;;;9.90;78.80;;;;;;5098807;27;20062;-83
2021/04/21 07:12:08;;;;;;;36.35;22.83;;;10.10;79.00;;;;;;5113092;27;20393;-83
2021/04/21 07:14:35;;;;;;;40.88;23.90;;;10.20;79.30;;;;;;5107446;27;20431;-83
2021/04/21 07:17:01;;;;;;;41.85;27.08;;;10.40;79.00;;;;;;5091308;27;20046;-85
2021/04/21 07:19:27;;;;;;;44.70;26.48;;;10.60;79.10;;;;;;5090336;27;20055;-84
2021/04/21 07:21:54;;;;;;;45.05;27.15;;;10.80;79.20;;;;;;5119403;27;20126;-85
2021/04/21 07:24:29;;;;;;;41.17;28.48;;;10.90;78.90;;;;;;5124245;27;20042;-83
2021/04/21 07:26:58;;;;;;;45.50;28.38;;;11.00;79.00;;;;;;5097094;27;20035;-84
2021/04/21 07:29:25;;;;;;;42.60;28.83;;;11.10;79.00;;;;;;5103377;27;20357;-83
2021/04/21 07:31:52;;;;;;;48.17;30.25;;;11.10;78.90;;;;;;5105747;27;20056;-83
2021/04/21 07:34:35;;;;;;;47.05;30.58;;;11.10;79.20;;;;;;5110317;27;20038;-83
2021/04/21 07:37:02;;;;;;;47.15;30.65;;;11.10;79.70;;;;;;5108020;27;21309;-84
2021/04/21 07:39:37;;;;;;;52.28;33.33;;;11.10;79.90;;;;;;5119608;27;20455;-82
2021/04/21 07:42:23;;;;;;;51.72;33.10;;;11.10;80.30;;;;;;5135057;27;20402;-83
2021/04/21 07:44:56;;;;;;;56.58;34.42;;;11.20;80.70;;;;;;5113477;27;20159;-86
2021/04/21 07:47:24;;;;;;;56.30;34.15;;;11.20;80.30;;;;;;5102464;27;20035;-83
2021/04/21 07:49:56;;;;;;;54.38;34.30;;;11.30;80.30;;;;;;5117491;27;20075;-83
2021/04/21 07:52:28;;;;;;;62.80;34.00;;;11.40;80.30;;;;;;5120268;27;20088;-84
2021/04/21 07:55:27;;;;;;;57.33;33.78;;;11.40;80.40;;;;;;5118805;27;20023;-83
2021/04/21 07:58:03;;;;;;;58.70;33.35;;;11.50;80.20;;;;;;5088418;27;20051;-83
2021/04/21 08:00:31;;;;;;;52.47;31.13;;;11.60;80.20;;;;;;5108262;27;20497;-84
2021/04/21 08:03:26;;;;;;;50.63;32.67;;;11.60;80.10;;;;;;5090976;27;20073;-83
2021/04/21 08:05:54;;;;;;;53.47;32.40;;;11.60;79.90;;;;;;5082019;27;20745;-83
2021/04/21 08:08:31;;;;;;;49.90;30.58;;;11.60;79.60;;;;;;5087399;27;20551;-82
2021/04/21 08:10:58;;;;;;;51.15;30.15;;;11.70;79.50;;;;;;5107906;27;20031;-84
2021/04/21 08:13:40;;;;;;;51.13;28.75;;;11.70;78.80;;;;;;5092553;27;20045;-85
2021/04/21 08:16:20;;;;;;;47.93;27.50;;;11.80;78.40;;;;;;5087211;27;20027;-81
2021/04/21 08:18:46;;;;;;;51.40;27.52;;;11.80;78.40;;;;;;5103653;27;20035;-83
2021/04/21 08:21:12;;;;;;;50.75;26.98;;;11.70;78.20;;;;;;5090190;27;20192;-84
2021/04/21 08:23:38;;;;;;;52.10;26.83;;;11.60;78.30;;;;;;5105145;27;20070;-83
2021/04/21 08:26:04;;;;;;;44.58;26.23;;;11.50;78.50;;;;;;5078779;27;20208;-84
2021/04/21 08:28:30;;;;;;;44.63;26.80;;;11.50;78.60;;;;;;5087194;27;20092;-83
2021/04/21 08:31:01;;;;;;;46.42;26.00;;;11.60;78.60;;;;;;5093632;27;20043;-86
2021/04/21 08:33:30;;;;;;;41.60;24.85;;;11.60;78.40;;;;;;5114747;27;20224;-84
2021/04/21 08:35:56;;;;;;;39.60;23.85;;;11.60;77.80;;;;;;5096483;27;20055;-84
2021/04/21 08:38:22;;;;;;;39.67;23.95;;;11.60;77.40;;;;;;5115139;27;20080;-84
2021/04/21 08:40:48;;;;;;;37.83;23.13;;;11.50;77.40;;;;;;5112599;27;20035;-83
2021/04/21 08:43:15;;;;;;;38.65;23.42;;;11.50;77.30;;;;;;5075055;27;20134;-82
2021/04/21 08:45:41;;;;;;;34.95;22.27;;;11.50;77.30;;;;;;5124935;27;20058;-84
2021/04/21 08:48:09;;;;;;;42.63;24.00;;;11.50;76.90;;;;;;5132316;27;20042;-84
2021/04/21 08:50:36;;;;;;;39.75;23.13;;;11.50;77.00;;;;;;5110074;27;20137;-84
2021/04/21 08:53:05;;;;;;;40.55;24.48;;;11.60;77.20;;;;;;5115363;27;20039;-84
2021/04/21 08:55:32;;;;;;;37.78;23.05;;;11.60;77.10;;;;;;5111470;27;20032;-83
2021/04/21 08:57:59;;;;;;;36.33;23.55;;;11.70;76.50;;;;;;5108654;27;20206;-84
2021/04/21 09:00:25;;;;;;;40.65;23.10;;;11.60;76.40;;;;;;5115222;27;20027;-85
2021/04/21 09:02:51;;;;;;;42.05;23.05;;;11.30;76.40;;;;;;5116555;27;20031;-84
2021/04/21 09:05:19;;;;;;;36.60;22.80;;;11.20;77.10;;;;;;5097586;28;20070;-82
2021/04/21 09:07:46;;;;;;;38.90;22.55;;;11.10;77.60;;;;;;5108199;27;20755;-82
2021/04/21 09:10:14;;;;;;;35.05;20.83;;;11.10;77.80;;;;;;5099657;27;20098;-84
2021/04/21 09:12:41;;;;;;;33.15;20.42;;;11.00;77.90;;;;;;5112421;27;20035;-83
2021/04/21 09:15:09;;;;;;;31.63;19.25;;;10.90;78.00;;;;;;5108863;27;20042;-83
2021/04/21 09:17:47;;;;;;;29.42;19.02;;;10.90;78.80;;;;;;5105392;27;20057;-83
2021/04/21 09:20:21;;;;;;;30.95;16.27;;;10.90;78.10;;;;;;5118660;27;20042;-83
2021/04/21 09:23:00;;;;;;;21.02;13.70;;;10.90;78.00;;;;;;5094031;28;20039;-82
2021/04/21 09:25:37;;;;;;;16.20;11.63;;;10.90;77.70;;;;;;5097393;27;20103;-84
2021/04/21 09:28:04;;;;;;;22.60;11.27;;;10.90;77.40;;;;;;5104479;27;20035;-83
2021/04/21 09:30:30;;;;;;;14.70;9.43;;;11.00;77.30;;;;;;5106688;27;20038;-82
2021/04/21 09:32:58;;;;;;;12.82;8.30;;;11.00;77.30;;;;;;5109576;27;20466;-81
2021/04/21 09:35:30;;;;;;;14.70;8.13;;;11.10;76.90;;;;;;5095647;27;20075;-82
2021/04/21 09:38:02;;;;;;;13.90;7.50;;;11.10;76.40;;;;;;5106090;27;20401;-80
2021/04/21 09:40:50;;;;;;;8.82;5.13;;;11.00;76.40;;;;;;5120874;27;20063;-80
2021/04/21 09:43:19;;;;;;;8.18;4.90;;;11.10;76.30;;;;;;5126900;27;20437;-81
2021/04/21 09:45:57;;;;;;;10.95;4.88;;;11.10;76.00;;;;;;5133164;27;20412;-82
2021/04/21 09:48:31;;;;;;;10.20;4.80;;;11.10;75.20;;;;;;5129753;27;20062;-82
2021/04/21 09:51:11;;;;;;;7.13;4.22;;;11.00;74.80;;;;;;5137834;27;20106;-80
2021/04/21 09:53:43;;;;;;;9.82;4.30;;;10.90;74.90;;;;;;5127351;27;20031;-81
2021/04/21 09:56:14;;;;;;;9.80;4.97;;;10.90;74.70;;;;;;5134309;27;20028;-82
2021/04/21 09:58:43;;;;;;;10.60;3.70;;;10.90;73.70;;;;;;5126001;27;20038;-81
2021/04/21 10:01:22;;;;;;;8.63;3.20;;;10.80;73.00;;;;;;5123602;27;20498;-80
2021/04/21 10:04:13;;;;;;;11.15;2.80;;;10.90;72.50;;;;;;5123077;27;20501;-80
2021/04/21 10:06:48;;;;;;;7.88;2.17;;;11.30;72.50;;;;;;5113668;27;20077;-79
2021/04/21 10:09:24;;;;;;;6.28;1.88;;;11.60;71.10;;;;;;5119640;27;20035;-81
2021/04/21 10:11:51;;;;;;;5.65;1.77;;;11.70;68.80;;;;;;5129504;27;20046;-81
2021/04/21 10:14:27;;;;;;;13.18;2.25;;;11.80;68.50;;;;;;5108018;27;20554;-82
2021/04/21 10:16:53;;;;;;;9.88;2.22;;;11.80;67.80;;;;;;5111507;27;20512;-80
2021/04/21 10:19:19;;;;;;;5.60;2.00;;;11.90;67.80;;;;;;5135771;27;20031;-81
2021/04/21 10:21:45;;;;;;;9.52;2.15;;;12.00;67.60;;;;;;5121567;27;20055;-81
2021/04/21 10:24:12;;;;;;;12.20;1.95;;;12.00;66.80;;;;;;5108282;27;20103;-81
2021/04/21 10:26:39;;;;;;;10.57;2.00;;;12.10;66.40;;;;;;5120616;27;20039;-79
2021/04/21 10:29:05;;;;;;;13.52;2.17;;;12.20;66.10;;;;;;5112436;27;20114;-82
2021/04/21 10:31:31;;;;;;;10.52;2.35;;;12.20;64.30;;;;;;5118901;27;20449;-82
2021/04/21 10:33:57;;;;;;;10.27;1.83;;;12.10;63.70;;;;;;5121833;27;20373;-83
2021/04/21 10:36:23;;;;;;;10.32;2.00;;;12.00;63.20;;;;;;5101541;27;20489;-81
2021/04/21 10:38:50;;;;;;;7.32;2.08;;;11.90;63.40;;;;;;5096511;27;20110;-82
2021/04/21 10:41:38;;;;;;;14.25;1.83;;;11.90;63.50;;;;;;5109392;27;20032;-81
2021/04/21 10:44:16;;;;;;;10.55;1.77;;;12.00;63.60;;;;;;5111979;27;20277;-82
2021/04/21 10:46:55;;;;;;;9.50;2.10;;;12.00;62.60;;;;;;5109436;27;20049;-83
2021/04/21 10:50:00;;;;;;;10.43;1.90;;;11.90;61.70;;;;;;5113364;27;20036;-83
2021/04/21 10:52:26;;;;;;;12.23;2.08;;;11.80;62.40;;;;;;5113369;27;20039;-81
2021/04/21 10:54:55;;;;;;;12.68;1.80;;;12.10;62.10;;;;;;5112780;27;20184;-81
2021/04/21 10:57:25;;;;;;;8.98;2.00;;;12.40;61.70;;;;;;5110333;27;20035;-82
2021/04/21 11:00:22;;;;;;;12.15;2.72;;;12.70;60.90;;;;;;5115014;27;20118;-83
2021/04/21 11:02:55;;;;;;;13.23;2.20;;;12.80;59.70;;;;;;5110454;27;20039;-82
2021/04/21 11:05:45;;;;;;;11.10;2.20;;;12.80;59.80;;;;;;5106432;27;20371;-83
2021/04/21 11:08:50;;;;;;;12.55;2.28;;;12.80;60.00;;;;;;5094778;27;20068;-81
2021/04/21 11:11:16;;;;;;;11.55;2.47;;;12.80;59.40;;;;;;5114906;27;20101;-82
2021/04/21 11:13:44;;;;;;;12.13;2.00;;;12.80;60.20;;;;;;5099379;27;20067;-84
2021/04/21 11:16:31;;;;;;;10.63;1.70;;;13.00;60.40;;;;;;5114459;27;20095;-82
2021/04/21 11:19:24;;;;;;;8.43;1.85;;;13.20;59.80;;;;;;5110504;27;20028;-81
2021/04/21 11:22:13;;;;;;;13.40;2.10;;;13.30;58.60;;;;;;5102279;27;20489;-82
2021/04/21 11:24:38;;;;;;;20.42;2.47;;;13.50;59.30;;;;;;5111511;27;20035;-82
2021/04/21 11:27:11;;;;;;;13.13;2.22;;;13.60;59.40;;;;;;5122038;27;20043;-82
2021/04/21 11:29:37;;;;;;;12.95;1.90;;;13.60;58.20;;;;;;5130974;27;20028;-82
2021/04/21 11:32:03;;;;;;;11.20;2.08;;;13.60;58.00;;;;;;5131139;27;20042;-82
2021/04/21 11:34:31;;;;;;;16.00;2.33;;;13.60;57.90;;;;;;5130184;27;20039;-82
2021/04/21 11:37:18;;;;;;;11.52;1.90;;;13.50;57.50;;;;;;5124435;27;20524;-81
2021/04/21 11:39:59;;;;;;;13.00;1.83;;;13.40;57.70;;;;;;5127010;27;20242;-81
2021/04/21 11:42:42;;;;;;;16.10;2.42;;;13.40;57.60;;;;;;5098553;27;20047;-83
2021/04/21 11:45:11;;;;;;;16.55;2.15;;;13.40;58.30;;;;;;5097157;27;20046;-82
2021/04/21 11:47:45;;;;;;;14.23;2.47;;;13.40;58.50;;;;;;5118944;27;20050;-83
2021/04/21 11:50:18;;;;;;;13.50;2.78;;;13.50;59.10;;;;;;5118931;27;20091;-81
2021/04/21 11:52:56;;;;;;;12.90;3.03;;;13.60;58.40;;;;;;5110322;27;20056;-81
2021/04/21 11:55:32;;;;;;;25.50;3.20;;;13.60;58.80;;;;;;5114979;27;20228;-81
2021/04/21 11:58:06;;;;;;;15.43;2.67;;;13.50;59.10;;;;;;5121802;27;20482;-83
2021/04/21 12:00:40;;;;;;;14.40;2.80;;;13.40;59.40;;;;;;5112295;27;20099;-81
2021/04/21 12:03:13;;;;;;;21.40;3.90;;;13.30;59.60;;;;;;5108671;27;20031;-82
2021/04/21 12:05:40;;;;;;;16.98;2.92;;;13.30;59.90;;;;;;5110563;27;20552;-81
2021/04/21 12:08:07;;;;;;;18.02;2.88;;;13.40;59.50;;;;;;5109268;27;20032;-83
2021/04/21 12:10:34;;;;;;;14.82;3.60;;;13.50;59.50;;;;;;5106060;27;20031;-83
2021/04/21 12:13:23;;;;;;;20.30;3.47;;;13.50;59.20;;;;;;5104806;27;20031;-81
2021/04/21 12:15:54;;;;;;;15.40;2.60;;;13.30;58.60;;;;;;5110427;27;20558;-81
2021/04/21 12:18:25;;;;;;;18.60;2.78;;;13.20;58.10;;;;;;5109988;27;20592;-82
2021/04/21 12:20:51;;;;;;;13.02;2.40;;;13.10;58.00;;;;;;5095344;27;20024;-81
2021/04/21 12:23:35;;;;;;;16.67;2.95;;;13.10;58.50;;;;;;5127512;27;20031;-82
2021/04/21 12:26:03;;;;;;;13.75;2.35;;;13.60;58.50;;;;;;5115954;27;20081;-84
2021/04/21 12:28:43;;;;;;;17.90;3.08;;;14.00;58.20;;;;;;5105886;27;20077;-83
2021/04/21 12:31:09;;;;;;;19.30;3.28;;;14.40;55.90;;;;;;5106130;27;20489;-81
2021/04/21 12:33:35;;;;;;;16.17;2.80;;;14.40;55.50;;;;;;5106982;27;20042;-80
2021/04/21 12:36:01;;;;;;;14.80;2.03;;;14.50;55.20;;;;;;5102837;27;20573;-85
2021/04/21 12:38:34;;;;;;;11.45;2.50;;;14.60;54.00;;;;;;5103686;27;20035;-81
2021/04/21 12:41:02;;;;;;;10.52;2.70;;;14.70;52.70;;;;;;5116849;27;20553;-80
2021/04/21 12:43:31;;;;;;;12.18;2.85;;;14.70;53.10;;;;;;5087627;27;20086;-83
2021/04/21 12:46:37;;;;;;;13.50;3.08;;;14.50;51.80;;;;;;5104627;27;20050;-83
2021/04/21 12:49:03;;;;;;;16.45;2.80;;;14.40;51.20;;;;;;5071602;27;20052;-81
2021/04/21 12:51:30;;;;;;;14.98;2.72;;;14.40;51.40;;;;;;5086162;27;20039;-80
2021/04/21 12:54:01;;;;;;;21.42;2.75;;;14.30;50.60;;;;;;5105933;27;20679;-81
2021/04/21 12:56:41;;;;;;;11.23;2.13;;;14.30;50.60;;;;;;5124029;27;20042;-81
2021/04/21 12:59:14;;;;;;;12.52;2.60;;;14.40;49.60;;;;;;5099255;28;20039;-82
2021/04/21 13:01:40;;;;;;;12.43;2.83;;;14.20;49.00;;;;;;5104809;28;20118;-82
2021/04/21 13:04:08;;;;;;;14.35;2.60;;;14.40;49.70;;;;;;5106733;27;20031;-82
2021/04/21 13:06:42;;;;;;;13.00;2.40;;;14.50;49.70;;;;;;5106204;27;20046;-82
2021/04/21 13:09:18;;;;;;;11.98;2.75;;;14.50;48.70;;;;;;5104302;27;20043;-81
2021/04/21 13:12:05;;;;;;;10.68;2.80;;;14.30;48.30;;;;;;5115773;27;20098;-81
2021/04/21 13:14:39;;;;;;;13.75;2.60;;;14.10;48.40;;;;;;5108381;27;20046;-81
2021/04/21 13:17:08;;;;;;;12.90;3.00;;;14.10;49.20;;;;;;5112313;27;20482;-83
2021/04/21 13:19:36;;;;;;;16.00;2.85;;;13.90;49.40;;;;;;5088356;27;20031;-81